createdAt,value
2023-03-06T00:01:17.917Z,5.60
2023-03-06T00:03:45.158Z,5.47
2023-03-06T00:06:11.697Z,5.10
2023-03-06T00:08:38.229Z,5.50
2023-03-06T00:11:05.014Z,5.87
2023-03-06T00:13:32.189Z,5.60
2023-03-06T00:16:00.944Z,5.70
2023-03-06T00:18:27.971Z,5.50
2023-03-06T00:20:55.046Z,6.07
2023-03-06T00:23:21.779Z,5.90
2023-03-06T00:25:48.311Z,5.47
2023-03-06T00:28:15.851Z,5.47
2023-03-06T00:30:43.338Z,6.10
2023-03-06T00:33:10.714Z,5.47
2023-03-06T00:35:39.161Z,5.73
2023-03-06T00:38:05.721Z,5.50
2023-03-06T00:40:32.222Z,6.27
2023-03-06T00:42:58.942Z,6.40
2023-03-06T00:45:25.639Z,6.07
2023-03-06T00:47:52.161Z,6.07
2023-03-06T00:50:18.684Z,6.07
2023-03-06T00:52:45.605Z,6.07
2023-03-06T00:55:13.207Z,6.20
2023-03-06T00:57:39.851Z,5.80
2023-03-06T01:00:06.912Z,6.43
2023-03-06T01:02:33.566Z,6.27
2023-03-06T01:05:00.638Z,6.43
2023-03-06T01:07:33.356Z,6.57
2023-03-06T01:10:00.134Z,6.17
2023-03-06T01:12:26.809Z,6.23
2023-03-06T01:14:53.420Z,6.47
2023-03-06T01:17:19.896Z,6.60
2023-03-06T01:19:46.438Z,6.03
2023-03-06T01:22:12.986Z,6.20
2023-03-06T01:24:39.544Z,6.77
2023-03-06T01:27:06.255Z,7.50
2023-03-06T01:29:32.788Z,6.90
2023-03-06T01:31:59.459Z,6.93
2023-03-06T01:34:26.252Z,6.67
2023-03-06T01:36:52.672Z,6.90
2023-03-06T01:39:19.128Z,6.87
2023-03-06T01:41:45.563Z,6.70
2023-03-06T01:44:13.755Z,7.30
2023-03-06T01:46:42.339Z,7.30
2023-03-06T01:49:14.024Z,7.40
2023-03-06T01:51:54.357Z,7.87
2023-03-06T01:54:34.543Z,7.40
2023-03-06T01:57:22.654Z,7.50
2023-03-06T01:59:55.422Z,7.30
2023-03-06T02:02:22.177Z,6.77
2023-03-06T02:04:48.995Z,7.60
2023-03-06T02:07:17.013Z,7.53
2023-03-06T02:09:43.685Z,8.00
2023-03-06T02:12:17.209Z,8.10
2023-03-06T02:14:44.358Z,7.53
2023-03-06T02:17:13.503Z,8.23
2023-03-06T02:20:00.833Z,7.70
2023-03-06T02:22:34.989Z,8.00
2023-03-06T02:25:26.792Z,8.37
2023-03-06T02:27:54.088Z,8.07
2023-03-06T02:30:21.325Z,8.37
2023-03-06T02:32:48.097Z,8.60
2023-03-06T02:35:20.314Z,9.17
2023-03-06T02:37:48.196Z,7.87
2023-03-06T02:40:18.010Z,8.30
2023-03-06T02:42:48.741Z,8.43
2023-03-06T02:45:23.109Z,8.97
2023-03-06T02:47:50.966Z,8.30
2023-03-06T02:50:19.256Z,8.47
2023-03-06T02:52:48.038Z,9.20
2023-03-06T02:55:16.292Z,8.53
2023-03-06T02:57:44.898Z,8.97
2023-03-06T03:00:13.605Z,9.33
2023-03-06T03:02:42.458Z,9.00
2023-03-06T03:05:11.630Z,9.33
2023-03-06T03:07:40.228Z,9.77
2023-03-06T03:10:09.474Z,9.27
2023-03-06T03:12:39.065Z,9.10
2023-03-06T03:15:07.953Z,9.03
2023-03-06T03:17:41.954Z,9.63
2023-03-06T03:20:14.829Z,9.90
2023-03-06T03:22:44.140Z,10.10
2023-03-06T03:25:11.598Z,9.60
2023-03-06T03:27:38.203Z,9.90
2023-03-06T03:30:05.260Z,9.80
2023-03-06T03:32:31.825Z,9.60
2023-03-06T03:34:58.469Z,9.40
2023-03-06T03:37:25.343Z,10.20
2023-03-06T03:39:51.844Z,10.47
2023-03-06T03:42:18.351Z,10.60
2023-03-06T03:44:44.934Z,10.53
2023-03-06T03:47:11.492Z,11.10
2023-03-06T03:49:38.991Z,10.07
2023-03-06T03:52:05.539Z,9.67
2023-03-06T03:54:32.019Z,10.77
2023-03-06T03:56:58.451Z,10.63
2023-03-06T03:59:25.535Z,9.97
2023-03-06T04:01:52.478Z,10.77
2023-03-06T04:04:19.594Z,11.17
2023-03-06T04:06:46.115Z,10.63
2023-03-06T04:09:12.646Z,10.00
2023-03-06T04:11:39.233Z,10.43
2023-03-06T04:14:08.178Z,9.93
2023-03-06T04:16:34.636Z,10.53
2023-03-06T04:19:01.390Z,10.23
2023-03-06T04:21:28.264Z,10.63
2023-03-06T04:23:54.737Z,10.17
2023-03-06T04:26:21.905Z,11.17
2023-03-06T04:28:48.541Z,10.03
2023-03-06T04:31:15.243Z,10.43
2023-03-06T04:33:41.833Z,10.20
2023-03-06T04:36:09.808Z,10.67
2023-03-06T04:38:36.366Z,9.90
2023-03-06T04:41:03.272Z,9.97
2023-03-06T04:43:29.991Z,10.63
2023-03-06T04:45:58.157Z,10.87
2023-03-06T04:48:24.719Z,10.23
2023-03-06T04:50:51.268Z,10.60
2023-03-06T04:53:19.608Z,10.50
2023-03-06T04:55:46.459Z,10.50
2023-03-06T05:11:30.291Z,10.63
2023-03-06T05:13:56.781Z,11.27
2023-03-06T05:16:23.617Z,11.07
2023-03-06T05:18:50.771Z,11.67
2023-03-06T05:21:17.386Z,10.43
2023-03-06T05:23:44.252Z,20.00
2023-03-06T05:26:12.589Z,16.03
2023-03-06T05:28:39.684Z,24.83
2023-03-06T05:31:07.255Z,47.47
2023-03-06T05:33:35.000Z,52.77
2023-03-06T05:36:03.126Z,39.80
2023-03-06T05:38:29.575Z,26.37
2023-03-06T05:40:56.117Z,32.67
2023-03-06T05:43:22.645Z,23.57
2023-03-06T05:45:50.600Z,32.70
2023-03-06T05:48:17.744Z,33.43
2023-03-06T05:50:44.505Z,32.47
2023-03-06T05:53:11.045Z,18.43
2023-03-06T05:55:37.580Z,23.03
2023-03-06T05:58:04.098Z,14.17
2023-03-06T06:00:30.624Z,17.13
2023-03-06T06:03:00.468Z,14.87
2023-03-06T06:05:27.561Z,13.07
2023-03-06T06:07:54.065Z,11.83
2023-03-06T06:10:20.628Z,18.83
2023-03-06T06:12:47.133Z,15.43
2023-03-06T06:15:15.355Z,12.83
2023-03-06T06:17:41.869Z,13.23
2023-03-06T06:20:11.398Z,13.43
2023-03-06T06:22:38.282Z,14.07
2023-03-06T06:25:06.337Z,13.23
2023-03-06T06:27:32.903Z,13.87
2023-03-06T06:29:59.451Z,12.97
2023-03-06T06:32:25.989Z,12.63
2023-03-06T06:34:52.506Z,12.93
2023-03-06T06:37:18.990Z,13.60
2023-03-06T06:39:45.494Z,12.43
2023-03-06T06:42:29.906Z,13.50
2023-03-06T06:44:58.172Z,12.30
2023-03-06T06:47:25.733Z,11.80
2023-03-06T06:49:54.136Z,12.57
2023-03-06T06:52:21.419Z,12.40
2023-03-06T06:54:48.016Z,12.77
2023-03-06T06:57:15.141Z,13.27
2023-03-06T06:59:41.768Z,13.37
2023-03-06T07:02:11.953Z,12.13
2023-03-06T07:04:44.322Z,12.30
2023-03-06T07:07:16.109Z,12.63
2023-03-06T07:09:42.604Z,12.57
2023-03-06T07:12:09.393Z,13.07
2023-03-06T07:14:36.353Z,12.20
2023-03-06T07:17:02.860Z,12.87
2023-03-06T07:19:29.415Z,12.33
2023-03-06T07:21:55.960Z,12.13
2023-03-06T07:24:22.573Z,12.20
2023-03-06T07:26:49.271Z,11.10
2023-03-06T07:29:16.109Z,12.03
2023-03-06T07:31:42.581Z,12.73
2023-03-06T07:34:12.848Z,12.83
2023-03-06T07:36:40.566Z,13.20
2023-03-06T07:39:08.154Z,13.50
2023-03-06T07:41:34.977Z,12.77
2023-03-06T07:44:01.635Z,12.43
2023-03-06T07:46:28.587Z,12.90
2023-03-06T07:48:55.631Z,13.90
2023-03-06T07:51:22.909Z,12.17
2023-03-06T07:53:49.955Z,11.97
2023-03-06T07:56:16.682Z,12.10
2023-03-06T07:58:44.871Z,12.53
2023-03-06T08:01:15.122Z,12.57
2023-03-06T08:03:41.910Z,13.50
2023-03-06T08:06:19.822Z,13.77
2023-03-06T08:08:47.337Z,11.83
2023-03-06T08:11:15.774Z,12.93
2023-03-06T08:13:42.866Z,11.60
2023-03-06T08:16:10.134Z,11.50
2023-03-06T08:18:39.584Z,11.27
2023-03-06T08:21:12.431Z,11.90
2023-03-06T08:23:39.185Z,11.43
2023-03-06T08:26:08.124Z,12.13
2023-03-06T08:28:34.951Z,11.90
2023-03-06T08:31:13.314Z,12.33
2023-03-06T08:33:40.782Z,12.10
2023-03-06T08:36:07.585Z,11.87
2023-03-06T08:38:34.071Z,12.00
2023-03-06T08:41:00.636Z,12.60
2023-03-06T08:43:27.229Z,12.20
2023-03-06T08:45:57.690Z,12.10
2023-03-06T08:48:24.831Z,12.40
2023-03-06T08:50:52.268Z,12.50
2023-03-06T08:53:18.825Z,12.30
2023-03-06T08:55:45.556Z,13.47
2023-03-06T08:58:12.144Z,12.90
2023-03-06T09:00:39.071Z,12.37
2023-03-06T09:03:06.163Z,13.67
2023-03-06T09:05:32.792Z,13.13
2023-03-06T09:07:59.264Z,14.17
2023-03-06T09:10:26.441Z,20.87
2023-03-06T09:12:55.028Z,15.33
2023-03-06T09:15:22.856Z,13.67
2023-03-06T09:17:50.846Z,14.00
2023-03-06T09:20:18.502Z,14.43
2023-03-06T09:22:45.710Z,14.50
2023-03-06T09:25:20.254Z,14.07
2023-03-06T09:27:55.477Z,14.90
2023-03-06T09:30:28.632Z,15.60
2023-03-06T09:32:55.141Z,14.60
2023-03-06T09:35:21.691Z,15.73
2023-03-06T09:37:48.087Z,15.13
2023-03-06T09:40:23.722Z,14.60
2023-03-06T09:42:50.243Z,14.57
2023-03-06T09:45:17.207Z,15.40
2023-03-06T09:47:48.016Z,14.67
2023-03-06T09:50:58.870Z,14.27
2023-03-06T09:53:47.790Z,14.57
2023-03-06T09:56:22.668Z,14.33
2023-03-06T09:58:53.039Z,14.27
2023-03-06T10:01:32.980Z,14.13
2023-03-06T10:04:37.600Z,13.93
2023-03-06T10:07:11.849Z,14.20
2023-03-06T10:09:57.824Z,15.77
2023-03-06T10:12:25.773Z,15.00
2023-03-06T10:15:00.837Z,14.97
2023-03-06T10:17:41.773Z,15.00
2023-03-06T10:20:22.402Z,14.17
2023-03-06T10:23:01.323Z,14.30
2023-03-06T10:25:38.909Z,14.70
2023-03-06T10:28:16.687Z,15.47
2023-03-06T10:30:51.312Z,14.50
2023-03-06T10:33:33.117Z,15.70
2023-03-06T10:35:59.976Z,15.60
2023-03-06T10:38:38.162Z,15.60
2023-03-06T10:41:10.685Z,15.77
2023-03-06T10:43:42.274Z,16.23
2023-03-06T10:46:11.460Z,16.10
2023-03-06T10:48:41.685Z,15.23
2023-03-06T10:51:19.988Z,16.43
2023-03-06T10:53:55.113Z,15.63
2023-03-06T10:56:34.842Z,15.93
2023-03-06T10:59:26.528Z,15.50
2023-03-06T11:01:55.405Z,16.20
2023-03-06T11:04:25.177Z,16.53
2023-03-06T11:07:23.691Z,16.77
2023-03-06T11:10:12.166Z,17.70
2023-03-06T11:12:40.707Z,17.70
2023-03-06T11:15:07.368Z,17.47
2023-03-06T11:17:42.165Z,17.93
2023-03-06T11:20:14.782Z,19.60
2023-03-06T11:22:41.720Z,18.90
2023-03-06T11:25:18.999Z,20.73
2023-03-06T11:27:47.368Z,21.37
2023-03-06T11:30:41.802Z,20.73
2023-03-06T11:33:18.091Z,19.90
2023-03-06T11:36:09.078Z,19.50
2023-03-06T11:38:51.972Z,19.57
2023-03-06T11:41:38.771Z,18.83
2023-03-06T11:44:13.853Z,18.27
2023-03-06T11:46:44.502Z,20.20
2023-03-06T11:49:20.621Z,19.37
2023-03-06T11:51:59.114Z,19.43
2023-03-06T11:54:25.943Z,19.87
2023-03-06T11:57:02.795Z,20.20
2023-03-06T11:59:56.846Z,18.93
2023-03-06T12:02:33.455Z,20.60
2023-03-06T12:05:22.794Z,20.73
2023-03-06T12:07:57.701Z,20.57
2023-03-06T12:10:31.475Z,20.17
2023-03-06T12:13:27.330Z,19.60
2023-03-06T12:16:02.299Z,19.93
2023-03-06T12:18:54.806Z,18.43
2023-03-06T12:21:31.027Z,19.17
2023-03-06T12:24:15.816Z,19.13
2023-03-06T12:27:25.505Z,18.70
2023-03-06T12:29:56.411Z,18.67
2023-03-06T12:32:38.339Z,18.90
2023-03-06T12:35:35.802Z,19.70
2023-03-06T12:38:26.837Z,20.47
2023-03-06T12:41:12.997Z,19.67
2023-03-06T12:43:48.685Z,19.73
2023-03-06T12:46:25.759Z,19.77
2023-03-06T12:49:31.901Z,18.83
2023-03-06T12:51:59.923Z,17.43
2023-03-06T12:54:29.462Z,18.37
2023-03-06T12:56:58.167Z,17.40
2023-03-06T12:59:44.327Z,16.70
2023-03-06T13:02:14.199Z,15.60
2023-03-06T13:05:00.616Z,15.00
2023-03-06T13:07:46.079Z,15.17
2023-03-06T13:10:21.583Z,15.97
2023-03-06T13:13:01.007Z,15.20
2023-03-06T13:15:39.177Z,16.27
2023-03-06T13:18:23.933Z,16.93
2023-03-06T13:20:54.603Z,15.57
2023-03-06T13:23:30.189Z,14.37
2023-03-06T13:25:58.254Z,15.20
2023-03-06T13:28:46.104Z,16.00
2023-03-06T13:31:26.563Z,15.90
2023-03-06T13:33:59.353Z,14.97
2023-03-06T13:36:29.677Z,13.90
2023-03-06T13:39:12.028Z,15.17
2023-03-06T13:41:38.779Z,15.60
2023-03-06T13:44:20.991Z,14.07
2023-03-06T13:47:05.994Z,13.73
2023-03-06T13:49:33.461Z,13.73
2023-03-06T13:52:09.573Z,14.30
2023-03-06T13:54:58.088Z,13.73
2023-03-06T13:57:46.430Z,13.67
2023-03-06T14:00:32.653Z,13.27
2023-03-06T14:03:42.340Z,13.43
2023-03-06T14:06:34.100Z,14.17
2023-03-06T14:09:05.403Z,15.00
2023-03-06T14:11:32.989Z,14.93
2023-03-06T14:13:59.927Z,16.00
2023-03-06T14:16:32.672Z,15.83
2023-03-06T14:19:04.452Z,16.83
2023-03-06T14:21:38.603Z,16.17
2023-03-06T14:24:05.430Z,16.37
2023-03-06T14:26:33.501Z,16.87
2023-03-06T14:29:01.900Z,16.20
2023-03-06T14:31:42.820Z,16.83
2023-03-06T14:34:21.585Z,16.47
2023-03-06T14:36:50.576Z,17.13
2023-03-06T14:39:27.477Z,17.67
2023-03-06T14:42:16.731Z,17.77
2023-03-06T14:44:43.277Z,17.07
2023-03-06T14:47:28.497Z,17.27
2023-03-06T14:50:25.873Z,17.73
2023-03-06T14:53:04.288Z,17.10
2023-03-06T14:55:33.078Z,16.90
2023-03-06T14:58:11.898Z,16.87
2023-03-06T15:00:43.524Z,15.43
2023-03-06T15:03:24.604Z,16.03
2023-03-06T15:05:51.996Z,15.37
2023-03-06T15:08:22.221Z,14.47
2023-03-06T15:11:00.076Z,13.67
2023-03-06T15:13:29.739Z,12.60
2023-03-06T15:16:08.673Z,13.27
2023-03-06T15:18:39.009Z,12.60
2023-03-06T15:21:25.162Z,12.20
2023-03-06T15:23:53.968Z,12.43
2023-03-06T15:26:23.980Z,11.83
2023-03-06T15:29:09.922Z,13.43
2023-03-06T15:31:38.852Z,12.90
2023-03-06T15:34:11.422Z,13.50
2023-03-06T15:36:42.430Z,12.27
2023-03-06T15:39:27.321Z,12.50
2023-03-06T15:41:58.226Z,13.13
2023-03-06T15:44:25.089Z,12.93
2023-03-06T15:46:56.312Z,12.93
2023-03-06T15:49:26.077Z,13.97
2023-03-06T15:51:52.712Z,13.73
2023-03-06T15:54:19.234Z,14.47
2023-03-06T15:56:47.245Z,13.73
2023-03-06T15:59:25.252Z,13.40
2023-03-06T16:01:52.628Z,12.60
2023-03-06T16:04:19.885Z,13.63
2023-03-06T16:06:46.434Z,12.93
2023-03-06T16:09:13.828Z,13.23
2023-03-06T16:11:44.774Z,13.43
2023-03-06T16:14:21.351Z,13.33
2023-03-06T16:16:48.590Z,14.37
2023-03-06T16:19:27.762Z,14.10
2023-03-06T16:21:56.266Z,13.97
2023-03-06T16:24:23.147Z,14.77
2023-03-06T16:26:51.400Z,15.03
2023-03-06T16:29:23.965Z,16.27
2023-03-06T16:31:51.026Z,28.97
2023-03-06T16:34:19.824Z,16.83
2023-03-06T16:36:47.963Z,16.63
2023-03-06T16:39:20.129Z,18.50
2023-03-06T16:41:47.145Z,55.07
2023-03-06T16:44:13.727Z,18.87
2023-03-06T16:46:42.794Z,18.77
2023-03-06T16:49:17.563Z,56.13
2023-03-06T16:51:45.100Z,16.70
2023-03-06T16:54:12.176Z,51.17
2023-03-06T16:56:38.617Z,51.07
2023-03-06T16:59:05.243Z,37.97
2023-03-06T17:01:31.773Z,18.50
2023-03-06T17:03:59.047Z,36.07
2023-03-06T17:06:25.639Z,41.30
2023-03-06T17:08:52.228Z,27.57
2023-03-06T17:11:20.291Z,15.87
2023-03-06T17:13:47.538Z,14.63
2023-03-06T17:16:18.042Z,14.43
2023-03-06T17:18:45.688Z,14.87
2023-03-06T17:21:15.617Z,13.47
2023-03-06T17:23:42.921Z,14.13
2023-03-06T17:26:19.086Z,13.97
2023-03-06T17:28:46.543Z,14.50
2023-03-06T17:31:16.007Z,14.87
2023-03-06T17:33:42.802Z,15.87
2023-03-06T17:36:10.030Z,18.77
2023-03-06T17:38:36.931Z,14.50
2023-03-06T17:41:07.491Z,16.30
2023-03-06T17:43:34.180Z,17.33
2023-03-06T17:46:05.183Z,18.00
2023-03-06T17:48:31.872Z,19.27
2023-03-06T17:50:58.728Z,18.87
2023-03-06T17:53:25.539Z,17.47
2023-03-06T17:55:52.377Z,19.50
2023-03-06T17:58:18.917Z,25.10
2023-03-06T18:00:45.891Z,26.37
2023-03-06T18:03:12.733Z,21.60
2023-03-06T18:05:39.282Z,20.90
2023-03-06T18:08:08.285Z,19.37
2023-03-06T18:10:34.870Z,19.10
2023-03-06T18:13:01.385Z,18.27
2023-03-06T18:15:28.012Z,18.47
2023-03-06T18:17:56.629Z,17.47
2023-03-06T18:20:23.103Z,16.57
2023-03-06T18:22:49.575Z,15.73
2023-03-06T18:25:16.215Z,15.80
2023-03-06T18:27:42.787Z,16.37
2023-03-06T18:30:10.056Z,17.57
2023-03-06T18:32:36.522Z,16.67
2023-03-06T18:35:03.046Z,16.53
2023-03-06T18:37:30.393Z,16.73
2023-03-06T18:39:56.935Z,16.40
2023-03-06T18:42:24.635Z,17.67
2023-03-06T18:44:51.100Z,18.20
2023-03-06T18:47:17.619Z,17.90
2023-03-06T18:49:45.948Z,18.57
2023-03-06T18:52:12.889Z,18.43
2023-03-06T18:54:39.512Z,18.27
2023-03-06T18:57:06.143Z,19.23
2023-03-06T18:59:32.541Z,18.40
2023-03-06T19:01:59.288Z,17.70
2023-03-06T19:04:26.815Z,17.70
2023-03-06T19:06:54.604Z,17.73
2023-03-06T19:09:21.658Z,18.67
2023-03-06T19:11:48.743Z,19.30
2023-03-06T19:14:16.347Z,18.47
2023-03-06T19:16:42.903Z,19.53
2023-03-06T19:19:09.477Z,20.07
2023-03-06T19:21:35.893Z,21.40
2023-03-06T19:24:03.108Z,22.03
2023-03-06T19:26:29.658Z,22.47
2023-03-06T19:28:56.374Z,21.77
2023-03-06T19:31:25.776Z,20.30
2023-03-06T19:33:53.658Z,19.20
2023-03-06T19:36:23.650Z,20.07
2023-03-06T19:38:54.248Z,20.20
2023-03-06T19:41:20.986Z,20.87
2023-03-06T19:43:52.300Z,21.77
2023-03-06T19:46:20.091Z,21.33
2023-03-06T19:48:47.247Z,20.53
2023-03-06T19:51:13.880Z,20.47
2023-03-06T19:53:40.720Z,20.20
2023-03-06T19:56:10.027Z,19.27
2023-03-06T19:58:36.716Z,20.33
2023-03-06T20:01:08.515Z,19.07
2023-03-06T20:03:35.286Z,20.27
2023-03-06T20:06:02.882Z,19.03
2023-03-06T20:08:29.454Z,19.97
2023-03-06T20:10:56.059Z,19.53
2023-03-06T20:13:22.729Z,20.03
2023-03-06T20:15:49.268Z,19.43
2023-03-06T20:18:15.852Z,22.77
2023-03-06T20:20:42.338Z,20.97
2023-03-06T20:23:08.923Z,19.83
2023-03-06T20:25:36.318Z,20.80
2023-03-06T20:28:03.553Z,20.90
2023-03-06T20:30:37.706Z,21.50
2023-03-06T20:33:05.277Z,20.97
2023-03-06T20:35:31.913Z,22.03
2023-03-06T20:37:59.760Z,22.20
2023-03-06T20:40:26.548Z,20.00
2023-03-06T20:42:53.810Z,21.17
2023-03-06T20:45:20.391Z,21.27
2023-03-06T20:47:47.265Z,21.13
2023-03-06T20:50:15.351Z,20.57
2023-03-06T20:52:41.947Z,21.50
2023-03-06T20:55:08.934Z,19.37
2023-03-06T20:57:35.552Z,20.93
2023-03-06T21:00:02.386Z,20.83
2023-03-06T21:02:30.157Z,21.23
2023-03-06T21:04:56.639Z,22.00
2023-03-06T21:07:23.161Z,23.23
2023-03-06T21:09:49.825Z,22.77
2023-03-06T21:12:16.441Z,22.60
2023-03-06T21:14:43.083Z,22.50
2023-03-06T21:17:09.675Z,24.13
2023-03-06T21:19:36.844Z,23.37
2023-03-06T21:22:03.500Z,23.60
2023-03-06T21:24:30.034Z,22.13
2023-03-06T21:26:56.563Z,23.47
2023-03-06T21:29:23.021Z,22.90
2023-03-06T21:31:49.654Z,22.37
2023-03-06T21:34:16.332Z,22.10
2023-03-06T21:36:43.531Z,22.53
2023-03-06T21:39:10.261Z,22.33
2023-03-06T21:41:38.149Z,21.83
2023-03-06T21:44:05.808Z,24.37
2023-03-06T21:46:32.813Z,24.50
2023-03-06T21:48:59.799Z,22.90
2023-03-06T21:51:27.138Z,20.67
2023-03-06T21:53:54.368Z,22.23
2023-03-06T21:56:22.879Z,22.27
2023-03-06T21:58:49.386Z,22.50
2023-03-06T22:01:18.787Z,22.03
2023-03-06T22:03:46.102Z,21.73
2023-03-06T22:06:15.189Z,21.73
2023-03-06T22:08:42.463Z,22.23
2023-03-06T22:11:14.518Z,21.50
2023-03-06T22:13:42.371Z,24.57
2023-03-06T22:16:09.395Z,22.97
2023-03-06T22:18:36.398Z,25.83
2023-03-06T22:21:09.325Z,24.90
2023-03-06T22:23:36.042Z,25.80
2023-03-06T22:26:11.241Z,26.03
2023-03-06T22:28:38.030Z,24.40
2023-03-06T22:31:12.176Z,25.50
2023-03-06T22:33:38.690Z,25.40
2023-03-06T22:36:11.065Z,26.30
2023-03-06T22:38:39.705Z,26.63
2023-03-06T22:41:06.603Z,26.00
2023-03-06T22:43:33.496Z,26.60
2023-03-06T22:46:02.022Z,25.43
2023-03-06T22:48:28.596Z,24.77
2023-03-06T22:50:55.206Z,22.97
2023-03-06T22:53:21.708Z,24.33
2023-03-06T22:55:48.132Z,25.60
2023-03-06T22:58:14.641Z,23.80
2023-03-06T23:00:41.399Z,24.90
2023-03-06T23:03:08.223Z,24.83
2023-03-06T23:05:34.763Z,26.73
2023-03-06T23:08:01.321Z,26.50
2023-03-06T23:10:27.797Z,27.20
2023-03-06T23:12:54.400Z,26.83
2023-03-06T23:15:20.897Z,25.87
2023-03-06T23:17:47.504Z,25.10
2023-03-06T23:20:14.584Z,25.37
2023-03-06T23:22:41.164Z,23.63
2023-03-06T23:25:08.175Z,24.03
2023-03-06T23:27:35.996Z,24.17
2023-03-06T23:30:04.530Z,24.13
2023-03-06T23:32:33.605Z,24.43
2023-03-06T23:35:00.372Z,25.07
2023-03-06T23:37:26.822Z,23.57
2023-03-06T23:39:53.282Z,23.53
2023-03-06T23:42:20.017Z,24.03
2023-03-06T23:44:46.768Z,24.77
2023-03-06T23:47:13.168Z,23.20
2023-03-06T23:49:40.075Z,23.77
2023-03-06T23:52:06.628Z,23.77
2023-03-06T23:54:34.303Z,23.13
2023-03-06T23:57:01.049Z,23.43
2023-03-06T23:59:27.761Z,23.53
